sensor_id;sensor_type;location;lat;lon;timestamp;P1;durP1;ratioP1;P2;durP2;ratioP2
62574;SDS011;76945;45.630;11.704;2024-03-23T00:52:46;59.35;;;34.55;;
62574;SDS011;76945;45.630;11.704;2024-03-23T00:55:12;61.17;;;34.75;;
62574;SDS011;76945;45.630;11.704;2024-03-23T00:57:38;61.50;;;34.75;;
62574;SDS011;76945;45.630;11.704;2024-03-23T01:00:04;58.03;;;33.53;;
62574;SDS011;76945;45.630;11.704;2024-03-23T01:02:31;57.28;;;31.90;;
62574;SDS011;76945;45.630;11.704;2024-03-23T01:04:58;46.25;;;28.45;;
62574;SDS011;76945;45.630;11.704;2024-03-23T01:07:23;60.40;;;34.35;;
62574;SDS011;76945;45.630;11.704;2024-03-23T01:09:49;51.03;;;29.92;;
62574;SDS011;76945;45.630;11.704;2024-03-23T01:12:15;53.45;;;31.83;;
62574;SDS011;76945;45.630;11.704;2024-03-23T01:14:41;59.42;;;33.83;;
62574;SDS011;76945;45.630;11.704;2024-03-23T01:17:06;53.88;;;31.20;;
62574;SDS011;76945;45.630;11.704;2024-03-23T01:19:32;48.20;;;28.77;;
62574;SDS011;76945;45.630;11.704;2024-03-23T01:21:57;54.65;;;33.92;;
62574;SDS011;76945;45.630;11.704;2024-03-23T01:24:23;55.22;;;32.00;;
62574;SDS011;76945;45.630;11.704;2024-03-23T01:26:48;56.90;;;32.92;;
62574;SDS011;76945;45.630;11.704;2024-03-23T01:29:14;55.13;;;31.92;;
62574;SDS011;76945;45.630;11.704;2024-03-23T01:31:40;42.95;;;25.95;;
62574;SDS011;76945;45.630;11.704;2024-03-23T01:34:05;55.45;;;31.77;;
62574;SDS011;76945;45.630;11.704;2024-03-23T01:36:31;60.42;;;33.88;;
62574;SDS011;76945;45.630;11.704;2024-03-23T01:38:56;48.90;;;30.52;;
62574;SDS011;76945;45.630;11.704;2024-03-23T01:41:24;57.22;;;33.67;;
62574;SDS011;76945;45.630;11.704;2024-03-23T01:43:49;57.30;;;33.58;;
62574;SDS011;76945;45.630;11.704;2024-03-23T01:46:15;45.97;;;28.25;;
62574;SDS011;76945;45.630;11.704;2024-03-23T01:48:42;51.67;;;30.17;;
62574;SDS011;76945;45.630;11.704;2024-03-23T01:51:08;46.03;;;27.27;;
62574;SDS011;76945;45.630;11.704;2024-03-23T01:53:34;48.15;;;28.60;;
62574;SDS011;76945;45.630;11.704;2024-03-23T01:55:59;51.63;;;28.67;;
62574;SDS011;76945;45.630;11.704;2024-03-23T01:58:27;45.53;;;28.33;;
62574;SDS011;76945;45.630;11.704;2024-03-23T02:00:53;47.03;;;27.05;;
62574;SDS011;76945;45.630;11.704;2024-03-23T02:03:25;48.35;;;29.80;;
62574;SDS011;76945;45.630;11.704;2024-03-23T02:05:55;47.67;;;28.63;;
62574;SDS011;76945;45.630;11.704;2024-03-23T02:08:22;48.85;;;28.00;;
62574;SDS011;76945;45.630;11.704;2024-03-23T02:10:49;42.60;;;25.90;;
62574;SDS011;76945;45.630;11.704;2024-03-23T02:13:15;45.95;;;27.88;;
62574;SDS011;76945;45.630;11.704;2024-03-23T02:15:42;48.10;;;28.40;;
62574;SDS011;76945;45.630;11.704;2024-03-23T02:18:08;42.78;;;25.17;;
62574;SDS011;76945;45.630;11.704;2024-03-23T02:20:34;45.55;;;27.35;;
62574;SDS011;76945;45.630;11.704;2024-03-23T02:23:00;48.60;;;27.60;;
62574;SDS011;76945;45.630;11.704;2024-03-23T02:25:26;42.97;;;26.08;;
62574;SDS011;76945;45.630;11.704;2024-03-23T02:27:52;44.40;;;27.50;;
62574;SDS011;76945;45.630;11.704;2024-03-23T02:30:19;49.13;;;27.27;;
62574;SDS011;76945;45.630;11.704;2024-03-23T02:32:45;52.35;;;29.50;;
62574;SDS011;76945;45.630;11.704;2024-03-23T02:35:11;43.42;;;25.27;;
62574;SDS011;76945;45.630;11.704;2024-03-23T02:37:36;49.05;;;27.50;;
62574;SDS011;76945;45.630;11.704;2024-03-23T02:40:02;51.85;;;28.55;;
62574;SDS011;76945;45.630;11.704;2024-03-23T02:42:28;59.15;;;31.63;;
62574;SDS011;76945;45.630;11.704;2024-03-23T02:44:53;52.95;;;30.15;;
62574;SDS011;76945;45.630;11.704;2024-03-23T02:47:19;58.53;;;33.15;;
62574;SDS011;76945;45.630;11.704;2024-03-23T02:49:45;57.85;;;31.90;;
62574;SDS011;76945;45.630;11.704;2024-03-23T02:52:10;67.70;;;35.55;;
62574;SDS011;76945;45.630;11.704;2024-03-23T02:54:36;54.90;;;31.00;;
62574;SDS011;76945;45.630;11.704;2024-03-23T02:57:02;55.10;;;30.27;;
62574;SDS011;76945;45.630;11.704;2024-03-23T02:59:27;59.10;;;31.35;;
62574;SDS011;76945;45.630;11.704;2024-03-23T03:01:53;57.65;;;31.50;;
62574;SDS011;76945;45.630;11.704;2024-03-23T03:04:19;56.33;;;33.45;;
62574;SDS011;76945;45.630;11.704;2024-03-23T03:06:47;68.40;;;36.47;;
62574;SDS011;76945;45.630;11.704;2024-03-23T03:09:14;57.67;;;32.45;;
62574;SDS011;76945;45.630;11.704;2024-03-23T03:11:40;50.55;;;29.05;;
62574;SDS011;76945;45.630;11.704;2024-03-23T03:14:06;58.17;;;31.85;;
62574;SDS011;76945;45.630;11.704;2024-03-23T03:16:33;55.03;;;30.67;;
62574;SDS011;76945;45.630;11.704;2024-03-23T03:18:58;56.95;;;31.25;;
62574;SDS011;76945;45.630;11.704;2024-03-23T03:21:24;48.38;;;29.45;;
62574;SDS011;76945;45.630;11.704;2024-03-23T03:23:50;49.22;;;28.27;;
62574;SDS011;76945;45.630;11.704;2024-03-23T03:26:18;43.80;;;26.02;;
62574;SDS011;76945;45.630;11.704;2024-03-23T03:28:44;45.45;;;27.98;;
62574;SDS011;76945;45.630;11.704;2024-03-23T03:31:14;43.03;;;27.63;;
62574;SDS011;76945;45.630;11.704;2024-03-23T03:33:43;44.25;;;25.92;;
62574;SDS011;76945;45.630;11.704;2024-03-23T03:36:09;45.10;;;26.42;;
62574;SDS011;76945;45.630;11.704;2024-03-23T03:38:35;40.42;;;25.38;;
62574;SDS011;76945;45.630;11.704;2024-03-23T03:41:01;34.67;;;20.65;;
62574;SDS011;76945;45.630;11.704;2024-03-23T03:43:27;39.05;;;23.92;;
62574;SDS011;76945;45.630;11.704;2024-03-23T03:45:53;39.80;;;26.05;;
62574;SDS011;76945;45.630;11.704;2024-03-23T03:48:20;43.67;;;26.23;;
62574;SDS011;76945;45.630;11.704;2024-03-23T03:50:45;43.10;;;25.38;;
62574;SDS011;76945;45.630;11.704;2024-03-23T03:53:11;40.67;;;25.15;;
62574;SDS011;76945;45.630;11.704;2024-03-23T03:55:36;37.45;;;24.52;;
62574;SDS011;76945;45.630;11.704;2024-03-23T03:58:02;36.78;;;23.88;;
62574;SDS011;76945;45.630;11.704;2024-03-23T04:00:29;46.00;;;25.38;;
62574;SDS011;76945;45.630;11.704;2024-03-23T04:02:55;44.35;;;26.55;;
62574;SDS011;76945;45.630;11.704;2024-03-23T04:05:21;41.33;;;23.90;;
62574;SDS011;76945;45.630;11.704;2024-03-23T04:07:47;36.55;;;22.40;;
62574;SDS011;76945;45.630;11.704;2024-03-23T04:10:13;37.88;;;23.20;;
62574;SDS011;76945;45.630;11.704;2024-03-23T04:12:40;33.38;;;20.98;;
62574;SDS011;76945;45.630;11.704;2024-03-23T04:15:06;45.13;;;25.33;;
62574;SDS011;76945;45.630;11.704;2024-03-23T04:17:32;41.40;;;26.60;;
62574;SDS011;76945;45.630;11.704;2024-03-23T04:19:59;48.17;;;28.88;;
62574;SDS011;76945;45.630;11.704;2024-03-23T04:22:25;60.40;;;32.13;;
62574;SDS011;76945;45.630;11.704;2024-03-23T04:24:54;58.30;;;31.73;;
62574;SDS011;76945;45.630;11.704;2024-03-23T04:27:21;82.03;;;41.45;;
62574;SDS011;76945;45.630;11.704;2024-03-23T04:29:50;75.05;;;37.95;;
62574;SDS011;76945;45.630;11.704;2024-03-23T04:32:16;63.28;;;33.72;;
62574;SDS011;76945;45.630;11.704;2024-03-23T04:34:43;64.75;;;34.08;;
62574;SDS011;76945;45.630;11.704;2024-03-23T04:37:09;64.13;;;35.22;;
62574;SDS011;76945;45.630;11.704;2024-03-23T04:39:38;61.55;;;32.80;;
62574;SDS011;76945;45.630;11.704;2024-03-23T04:42:04;65.13;;;34.53;;
62574;SDS011;76945;45.630;11.704;2024-03-23T04:44:30;61.33;;;32.13;;
62574;SDS011;76945;45.630;11.704;2024-03-23T04:47:00;56.22;;;29.88;;
62574;SDS011;76945;45.630;11.704;2024-03-23T04:49:26;57.63;;;31.63;;
62574;SDS011;76945;45.630;11.704;2024-03-23T04:51:52;57.13;;;30.23;;
62574;SDS011;76945;45.630;11.704;2024-03-23T04:54:17;55.13;;;29.27;;
62574;SDS011;76945;45.630;11.704;2024-03-23T04:56:43;54.70;;;27.30;;
62574;SDS011;76945;45.630;11.704;2024-03-23T04:59:09;49.75;;;27.33;;
62574;SDS011;76945;45.630;11.704;2024-03-23T05:01:34;50.25;;;26.55;;
62574;SDS011;76945;45.630;11.704;2024-03-23T05:04:00;52.88;;;28.92;;
62574;SDS011;76945;45.630;11.704;2024-03-23T05:06:26;44.47;;;26.30;;
62574;SDS011;76945;45.630;11.704;2024-03-23T05:08:52;47.97;;;26.55;;
62574;SDS011;76945;45.630;11.704;2024-03-23T05:11:18;50.67;;;28.00;;
62574;SDS011;76945;45.630;11.704;2024-03-23T05:13:43;51.63;;;28.02;;
62574;SDS011;76945;45.630;11.704;2024-03-23T05:16:10;40.67;;;24.20;;
62574;SDS011;76945;45.630;11.704;2024-03-23T05:18:36;40.42;;;22.42;;
62574;SDS011;76945;45.630;11.704;2024-03-23T05:21:01;38.85;;;21.98;;
62574;SDS011;76945;45.630;11.704;2024-03-23T05:23:28;40.13;;;22.45;;
62574;SDS011;76945;45.630;11.704;2024-03-23T05:25:54;42.78;;;24.20;;
62574;SDS011;76945;45.630;11.704;2024-03-23T05:28:23;43.47;;;24.13;;
62574;SDS011;76945;45.630;11.704;2024-03-23T05:30:55;46.13;;;24.30;;
62574;SDS011;76945;45.630;11.704;2024-03-23T05:33:21;52.35;;;27.17;;
62574;SDS011;76945;45.630;11.704;2024-03-23T05:35:55;48.17;;;24.30;;
62574;SDS011;76945;45.630;11.704;2024-03-23T05:38:26;49.53;;;25.88;;
62574;SDS011;76945;45.630;11.704;2024-03-23T05:40:56;48.40;;;25.80;;
62574;SDS011;76945;45.630;11.704;2024-03-23T05:43:23;53.47;;;26.27;;
62574;SDS011;76945;45.630;11.704;2024-03-23T05:45:55;45.55;;;24.80;;
62574;SDS011;76945;45.630;11.704;2024-03-23T05:48:22;45.60;;;24.25;;
62574;SDS011;76945;45.630;11.704;2024-03-23T05:50:49;53.00;;;23.52;;
62574;SDS011;76945;45.630;11.704;2024-03-23T05:53:17;48.47;;;24.35;;
62574;SDS011;76945;45.630;11.704;2024-03-23T05:55:45;35.53;;;20.42;;
62574;SDS011;76945;45.630;11.704;2024-03-23T05:58:14;50.17;;;27.52;;
62574;SDS011;76945;45.630;11.704;2024-03-23T06:00:40;42.20;;;24.10;;
62574;SDS011;76945;45.630;11.704;2024-03-23T06:03:07;48.72;;;26.77;;
62574;SDS011;76945;45.630;11.704;2024-03-23T06:05:33;52.42;;;28.80;;
62574;SDS011;76945;45.630;11.704;2024-03-23T06:07:59;44.75;;;25.88;;
62574;SDS011;76945;45.630;11.704;2024-03-23T06:10:24;44.33;;;26.95;;
62574;SDS011;76945;45.630;11.704;2024-03-23T06:12:50;34.22;;;20.50;;
62574;SDS011;76945;45.630;11.704;2024-03-23T06:15:17;28.23;;;18.10;;
62574;SDS011;76945;45.630;11.704;2024-03-23T06:17:43;31.65;;;19.35;;
62574;SDS011;76945;45.630;11.704;2024-03-23T06:20:09;30.83;;;18.23;;
62574;SDS011;76945;45.630;11.704;2024-03-23T06:22:35;28.55;;;17.45;;
62574;SDS011;76945;45.630;11.704;2024-03-23T06:25:01;25.77;;;15.48;;
62574;SDS011;76945;45.630;11.704;2024-03-23T06:27:27;37.10;;;19.23;;
62574;SDS011;76945;45.630;11.704;2024-03-23T06:29:54;29.63;;;17.10;;
62574;SDS011;76945;45.630;11.704;2024-03-23T06:32:20;33.45;;;18.45;;
62574;SDS011;76945;45.630;11.704;2024-03-23T06:34:46;25.08;;;15.50;;
62574;SDS011;76945;45.630;11.704;2024-03-23T06:37:11;24.20;;;14.75;;
62574;SDS011;76945;45.630;11.704;2024-03-23T06:39:37;29.48;;;16.08;;
62574;SDS011;76945;45.630;11.704;2024-03-23T06:42:03;24.10;;;14.32;;
62574;SDS011;76945;45.630;11.704;2024-03-23T06:44:29;25.17;;;14.45;;
62574;SDS011;76945;45.630;11.704;2024-03-23T06:46:55;26.20;;;15.45;;
62574;SDS011;76945;45.630;11.704;2024-03-23T06:49:22;27.27;;;15.30;;
62574;SDS011;76945;45.630;11.704;2024-03-23T06:51:48;22.33;;;14.63;;
62574;SDS011;76945;45.630;11.704;2024-03-23T06:54:14;24.45;;;14.25;;
62574;SDS011;76945;45.630;11.704;2024-03-23T06:56:41;27.00;;;16.17;;
62574;SDS011;76945;45.630;11.704;2024-03-23T06:59:07;21.77;;;13.98;;
62574;SDS011;76945;45.630;11.704;2024-03-23T07:01:32;26.80;;;14.05;;
62574;SDS011;76945;45.630;11.704;2024-03-23T07:03:58;24.20;;;14.65;;
62574;SDS011;76945;45.630;11.704;2024-03-23T07:06:24;23.02;;;14.15;;
62574;SDS011;76945;45.630;11.704;2024-03-23T07:08:49;23.23;;;15.40;;
62574;SDS011;76945;45.630;11.704;2024-03-23T07:11:19;23.40;;;14.40;;
62574;SDS011;76945;45.630;11.704;2024-03-23T07:13:45;23.77;;;14.50;;
62574;SDS011;76945;45.630;11.704;2024-03-23T07:16:12;23.52;;;13.68;;
62574;SDS011;76945;45.630;11.704;2024-03-23T07:18:38;22.73;;;13.80;;
62574;SDS011;76945;45.630;11.704;2024-03-23T07:21:04;19.05;;;12.52;;
62574;SDS011;76945;45.630;11.704;2024-03-23T07:23:32;19.42;;;12.32;;
62574;SDS011;76945;45.630;11.704;2024-03-23T07:25:58;19.20;;;12.35;;
62574;SDS011;76945;45.630;11.704;2024-03-23T07:28:29;30.02;;;17.50;;
62574;SDS011;76945;45.630;11.704;2024-03-23T07:31:03;25.90;;;15.60;;
62574;SDS011;76945;45.630;11.704;2024-03-23T07:33:29;28.65;;;17.63;;
62574;SDS011;76945;45.630;11.704;2024-03-23T07:35:55;29.33;;;19.33;;
62574;SDS011;76945;45.630;11.704;2024-03-23T07:38:21;30.75;;;18.50;;
62574;SDS011;76945;45.630;11.704;2024-03-23T07:40:46;27.08;;;17.67;;
62574;SDS011;76945;45.630;11.704;2024-03-23T07:43:13;35.78;;;21.35;;
62574;SDS011;76945;45.630;11.704;2024-03-23T07:45:38;29.92;;;19.50;;
62574;SDS011;76945;45.630;11.704;2024-03-23T07:48:04;30.45;;;19.45;;
62574;SDS011;76945;45.630;11.704;2024-03-23T07:50:30;26.27;;;17.02;;
62574;SDS011;76945;45.630;11.704;2024-03-23T07:52:55;28.65;;;18.02;;
62574;SDS011;76945;45.630;11.704;2024-03-23T07:55:21;35.60;;;23.45;;
62574;SDS011;76945;45.630;11.704;2024-03-23T07:57:47;31.73;;;20.58;;
62574;SDS011;76945;45.630;11.704;2024-03-23T08:00:12;34.75;;;21.58;;
62574;SDS011;76945;45.630;11.704;2024-03-23T08:02:38;36.28;;;21.40;;
62574;SDS011;76945;45.630;11.704;2024-03-23T08:05:05;33.67;;;21.55;;
62574;SDS011;76945;45.630;11.704;2024-03-23T08:07:31;32.90;;;20.77;;
62574;SDS011;76945;45.630;11.704;2024-03-23T08:09:56;35.30;;;22.45;;
62574;SDS011;76945;45.630;11.704;2024-03-23T08:12:24;34.97;;;21.98;;
62574;SDS011;76945;45.630;11.704;2024-03-23T08:14:49;34.45;;;21.48;;
62574;SDS011;76945;45.630;11.704;2024-03-23T08:17:15;34.22;;;20.55;;
62574;SDS011;76945;45.630;11.704;2024-03-23T08:19:40;29.17;;;19.17;;
62574;SDS011;76945;45.630;11.704;2024-03-23T08:22:06;33.45;;;21.20;;
62574;SDS011;76945;45.630;11.704;2024-03-23T08:24:32;33.45;;;21.15;;
62574;SDS011;76945;45.630;11.704;2024-03-23T08:26:59;35.97;;;23.48;;
62574;SDS011;76945;45.630;11.704;2024-03-23T08:29:24;38.55;;;25.38;;
62574;SDS011;76945;45.630;11.704;2024-03-23T08:31:50;36.72;;;23.65;;
62574;SDS011;76945;45.630;11.704;2024-03-23T08:34:16;33.53;;;22.67;;
62574;SDS011;76945;45.630;11.704;2024-03-23T08:36:41;32.05;;;22.33;;
62574;SDS011;76945;45.630;11.704;2024-03-23T08:39:07;37.83;;;23.63;;
62574;SDS011;76945;45.630;11.704;2024-03-23T08:41:32;36.10;;;23.52;;
62574;SDS011;76945;45.630;11.704;2024-03-23T08:43:58;36.88;;;24.70;;
62574;SDS011;76945;45.630;11.704;2024-03-23T08:46:23;33.30;;;22.23;;
62574;SDS011;76945;45.630;11.704;2024-03-23T08:48:49;36.45;;;23.83;;
62574;SDS011;76945;45.630;11.704;2024-03-23T08:51:17;35.70;;;23.17;;
62574;SDS011;76945;45.630;11.704;2024-03-23T08:53:43;36.13;;;23.73;;
62574;SDS011;76945;45.630;11.704;2024-03-23T08:56:09;37.90;;;23.83;;
62574;SDS011;76945;45.630;11.704;2024-03-23T08:58:35;39.20;;;23.45;;
62574;SDS011;76945;45.630;11.704;2024-03-23T09:01:09;33.55;;;22.63;;
62574;SDS011;76945;45.630;11.704;2024-03-23T09:03:36;35.83;;;22.48;;
62574;SDS011;76945;45.630;11.704;2024-03-23T09:06:06;33.33;;;21.10;;
62574;SDS011;76945;45.630;11.704;2024-03-23T09:08:32;36.78;;;22.52;;
62574;SDS011;76945;45.630;11.704;2024-03-23T09:11:03;34.10;;;21.95;;
62574;SDS011;76945;45.630;11.704;2024-03-23T09:13:31;33.53;;;21.15;;
62574;SDS011;76945;45.630;11.704;2024-03-23T09:15:57;34.25;;;22.38;;
62574;SDS011;76945;45.630;11.704;2024-03-23T09:18:23;34.75;;;22.90;;
62574;SDS011;76945;45.630;11.704;2024-03-23T09:20:49;33.20;;;21.50;;
62574;SDS011;76945;45.630;11.704;2024-03-23T09:23:14;32.17;;;22.35;;
62574;SDS011;76945;45.630;11.704;2024-03-23T09:25:40;31.45;;;20.58;;
62574;SDS011;76945;45.630;11.704;2024-03-23T09:28:06;32.90;;;21.50;;
62574;SDS011;76945;45.630;11.704;2024-03-23T09:30:33;33.80;;;21.65;;
62574;SDS011;76945;45.630;11.704;2024-03-23T09:32:59;33.05;;;22.10;;
62574;SDS011;76945;45.630;11.704;2024-03-23T09:35:26;34.90;;;22.45;;
62574;SDS011;76945;45.630;11.704;2024-03-23T09:37:52;27.98;;;19.30;;
62574;SDS011;76945;45.630;11.704;2024-03-23T09:40:17;35.45;;;22.15;;
62574;SDS011;76945;45.630;11.704;2024-03-23T09:42:43;35.08;;;22.88;;
62574;SDS011;76945;45.630;11.704;2024-03-23T09:45:19;37.65;;;23.75;;
62574;SDS011;76945;45.630;11.704;2024-03-23T09:47:46;32.72;;;21.42;;
62574;SDS011;76945;45.630;11.704;2024-03-23T09:50:13;32.03;;;21.77;;
62574;SDS011;76945;45.630;11.704;2024-03-23T09:52:39;34.45;;;22.50;;
62574;SDS011;76945;45.630;11.704;2024-03-23T09:55:06;33.53;;;21.80;;
62574;SDS011;76945;45.630;11.704;2024-03-23T09:57:33;32.03;;;20.33;;
62574;SDS011;76945;45.630;11.704;2024-03-23T09:59:59;29.55;;;20.38;;
62574;SDS011;76945;45.630;11.704;2024-03-23T10:02:25;35.00;;;24.15;;
62574;SDS011;76945;45.630;11.704;2024-03-23T10:04:51;30.67;;;22.45;;
62574;SDS011;76945;45.630;11.704;2024-03-23T10:07:20;33.08;;;22.67;;
62574;SDS011;76945;45.630;11.704;2024-03-23T10:09:49;27.05;;;18.70;;
62574;SDS011;76945;45.630;11.704;2024-03-23T10:12:18;29.13;;;19.52;;
62574;SDS011;76945;45.630;11.704;2024-03-23T10:14:44;31.27;;;23.00;;
62574;SDS011;76945;45.630;11.704;2024-03-23T10:17:17;31.90;;;22.45;;
62574;SDS011;76945;45.630;11.704;2024-03-23T10:19:50;31.35;;;21.50;;
62574;SDS011;76945;45.630;11.704;2024-03-23T10:22:18;32.45;;;21.42;;
62574;SDS011;76945;45.630;11.704;2024-03-23T10:24:45;30.67;;;21.30;;
62574;SDS011;76945;45.630;11.704;2024-03-23T10:27:17;32.10;;;22.23;;
62574;SDS011;76945;45.630;11.704;2024-03-23T10:29:45;30.13;;;20.90;;
62574;SDS011;76945;45.630;11.704;2024-03-23T10:32:11;28.02;;;19.05;;
62574;SDS011;76945;45.630;11.704;2024-03-23T10:34:38;30.17;;;20.48;;
62574;SDS011;76945;45.630;11.704;2024-03-23T10:37:04;27.73;;;20.40;;
62574;SDS011;76945;45.630;11.704;2024-03-23T10:39:35;29.65;;;20.58;;
62574;SDS011;76945;45.630;11.704;2024-03-23T10:42:10;27.73;;;20.17;;
62574;SDS011;76945;45.630;11.704;2024-03-23T10:44:36;27.92;;;20.23;;
62574;SDS011;76945;45.630;11.704;2024-03-23T10:47:03;28.58;;;20.42;;
62574;SDS011;76945;45.630;11.704;2024-03-23T10:49:33;32.15;;;22.60;;
62574;SDS011;76945;45.630;11.704;2024-03-23T10:52:00;31.55;;;21.23;;
62574;SDS011;76945;45.630;11.704;2024-03-23T10:54:30;29.58;;;19.95;;
62574;SDS011;76945;45.630;11.704;2024-03-23T10:59:29;25.02;;;17.73;;
62574;SDS011;76945;45.630;11.704;2024-03-23T11:01:56;25.48;;;18.77;;
62574;SDS011;76945;45.630;11.704;2024-03-23T11:04:29;25.35;;;18.52;;
62574;SDS011;76945;45.630;11.704;2024-03-23T11:06:58;29.48;;;20.17;;
62574;SDS011;76945;45.630;11.704;2024-03-23T11:14:47;30.20;;;21.60;;
62574;SDS011;76945;45.630;11.704;2024-03-23T11:17:22;27.77;;;19.88;;
62574;SDS011;76945;45.630;11.704;2024-03-23T11:20:01;26.60;;;19.83;;
62574;SDS011;76945;45.630;11.704;2024-03-23T11:25:15;28.55;;;20.90;;
62574;SDS011;76945;45.630;11.704;2024-03-23T11:27:43;31.23;;;21.35;;
62574;SDS011;76945;45.630;11.704;2024-03-23T11:30:17;28.80;;;21.60;;
62574;SDS011;76945;45.630;11.704;2024-03-23T11:32:47;33.33;;;23.08;;
62574;SDS011;76945;45.630;11.704;2024-03-23T11:35:30;32.78;;;20.27;;
62574;SDS011;76945;45.630;11.704;2024-03-23T11:38:07;29.27;;;19.83;;
62574;SDS011;76945;45.630;11.704;2024-03-23T11:40:46;29.40;;;21.15;;
62574;SDS011;76945;45.630;11.704;2024-03-23T11:43:16;28.80;;;20.08;;
62574;SDS011;76945;45.630;11.704;2024-03-23T11:45:46;27.00;;;20.47;;
62574;SDS011;76945;45.630;11.704;2024-03-23T11:48:14;26.77;;;19.80;;
62574;SDS011;76945;45.630;11.704;2024-03-23T11:50:43;26.40;;;19.25;;
62574;SDS011;76945;45.630;11.704;2024-03-23T11:58:11;26.55;;;20.25;;
62574;SDS011;76945;45.630;11.704;2024-03-23T12:00:37;27.30;;;19.10;;
62574;SDS011;76945;45.630;11.704;2024-03-23T12:03:03;28.33;;;20.60;;
62574;SDS011;76945;45.630;11.704;2024-03-23T12:05:33;23.90;;;17.45;;
62574;SDS011;76945;45.630;11.704;2024-03-23T12:08:18;27.60;;;20.95;;
62574;SDS011;76945;45.630;11.704;2024-03-23T12:11:07;24.88;;;19.35;;
62574;SDS011;76945;45.630;11.704;2024-03-23T12:13:41;27.50;;;20.58;;
62574;SDS011;76945;45.630;11.704;2024-03-23T12:16:29;25.52;;;19.60;;
62574;SDS011;76945;45.630;11.704;2024-03-23T12:18:54;26.50;;;19.45;;
62574;SDS011;76945;45.630;11.704;2024-03-23T12:21:30;25.02;;;18.60;;
62574;SDS011;76945;45.630;11.704;2024-03-23T12:23:56;26.52;;;19.10;;
62574;SDS011;76945;45.630;11.704;2024-03-23T12:26:21;24.60;;;18.48;;
62574;SDS011;76945;45.630;11.704;2024-03-23T12:28:48;26.70;;;19.60;;
62574;SDS011;76945;45.630;11.704;2024-03-23T12:31:13;23.75;;;18.52;;
62574;SDS011;76945;45.630;11.704;2024-03-23T12:33:39;25.05;;;19.33;;
62574;SDS011;76945;45.630;11.704;2024-03-23T12:36:05;27.40;;;20.58;;
62574;SDS011;76945;45.630;11.704;2024-03-23T12:38:30;26.10;;;19.92;;
62574;SDS011;76945;45.630;11.704;2024-03-23T12:40:56;24.85;;;18.80;;
62574;SDS011;76945;45.630;11.704;2024-03-23T12:43:22;24.45;;;19.45;;
62574;SDS011;76945;45.630;11.704;2024-03-23T12:45:47;26.80;;;20.02;;
62574;SDS011;76945;45.630;11.704;2024-03-23T12:48:13;21.95;;;17.23;;
62574;SDS011;76945;45.630;11.704;2024-03-23T12:50:39;25.23;;;19.45;;
62574;SDS011;76945;45.630;11.704;2024-03-23T12:53:04;23.42;;;18.00;;
62574;SDS011;76945;45.630;11.704;2024-03-23T12:55:30;24.00;;;19.42;;
62574;SDS011;76945;45.630;11.704;2024-03-23T12:57:56;24.60;;;19.60;;
62574;SDS011;76945;45.630;11.704;2024-03-23T13:00:21;24.55;;;18.60;;
62574;SDS011;76945;45.630;11.704;2024-03-23T13:02:47;22.20;;;16.05;;
62574;SDS011;76945;45.630;11.704;2024-03-23T13:05:13;23.73;;;18.17;;
62574;SDS011;76945;45.630;11.704;2024-03-23T13:07:38;24.90;;;20.40;;
62574;SDS011;76945;45.630;11.704;2024-03-23T13:10:07;24.90;;;19.05;;
62574;SDS011;76945;45.630;11.704;2024-03-23T13:12:34;25.05;;;19.42;;
62574;SDS011;76945;45.630;11.704;2024-03-23T13:14:59;26.17;;;19.83;;
62574;SDS011;76945;45.630;11.704;2024-03-23T13:17:26;24.48;;;19.25;;
62574;SDS011;76945;45.630;11.704;2024-03-23T13:19:52;27.38;;;21.17;;
62574;SDS011;76945;45.630;11.704;2024-03-23T13:22:19;27.20;;;20.60;;
62574;SDS011;76945;45.630;11.704;2024-03-23T13:24:44;24.63;;;18.80;;
62574;SDS011;76945;45.630;11.704;2024-03-23T13:27:10;26.70;;;19.95;;
62574;SDS011;76945;45.630;11.704;2024-03-23T13:29:36;22.85;;;18.42;;
62574;SDS011;76945;45.630;11.704;2024-03-23T13:32:02;24.45;;;18.30;;
62574;SDS011;76945;45.630;11.704;2024-03-23T13:34:28;26.42;;;20.65;;
62574;SDS011;76945;45.630;11.704;2024-03-23T13:36:54;25.48;;;20.60;;
62574;SDS011;76945;45.630;11.704;2024-03-23T13:39:23;26.50;;;20.50;;
62574;SDS011;76945;45.630;11.704;2024-03-23T13:41:49;25.63;;;19.63;;
62574;SDS011;76945;45.630;11.704;2024-03-23T13:44:15;24.77;;;19.60;;
62574;SDS011;76945;45.630;11.704;2024-03-23T13:46:42;24.85;;;19.00;;
62574;SDS011;76945;45.630;11.704;2024-03-23T13:51:57;28.30;;;20.73;;
62574;SDS011;76945;45.630;11.704;2024-03-23T13:54:23;28.70;;;20.30;;
62574;SDS011;76945;45.630;11.704;2024-03-23T13:56:53;28.42;;;20.83;;
62574;SDS011;76945;45.630;11.704;2024-03-23T13:59:20;25.58;;;19.40;;
62574;SDS011;76945;45.630;11.704;2024-03-23T14:01:48;26.35;;;18.55;;
62574;SDS011;76945;45.630;11.704;2024-03-23T14:04:13;26.40;;;18.52;;
62574;SDS011;76945;45.630;11.704;2024-03-23T14:06:41;27.38;;;19.45;;
62574;SDS011;76945;45.630;11.704;2024-03-23T14:09:07;24.50;;;17.30;;
62574;SDS011;76945;45.630;11.704;2024-03-23T14:11:36;24.45;;;17.95;;
62574;SDS011;76945;45.630;11.704;2024-03-23T14:14:02;27.63;;;19.38;;
62574;SDS011;76945;45.630;11.704;2024-03-23T14:16:29;29.92;;;20.42;;
62574;SDS011;76945;45.630;11.704;2024-03-23T14:18:56;28.90;;;19.52;;
62574;SDS011;76945;45.630;11.704;2024-03-23T14:21:22;25.40;;;18.30;;
62574;SDS011;76945;45.630;11.704;2024-03-23T14:23:47;27.77;;;18.30;;
62574;SDS011;76945;45.630;11.704;2024-03-23T14:26:13;25.42;;;18.30;;
62574;SDS011;76945;45.630;11.704;2024-03-23T14:28:39;28.38;;;17.85;;
62574;SDS011;76945;45.630;11.704;2024-03-23T14:31:05;26.05;;;17.00;;
62574;SDS011;76945;45.630;11.704;2024-03-23T14:33:35;25.10;;;17.45;;
62574;SDS011;76945;45.630;11.704;2024-03-23T14:36:10;27.45;;;18.65;;
62574;SDS011;76945;45.630;11.704;2024-03-23T14:38:36;26.83;;;16.83;;
62574;SDS011;76945;45.630;11.704;2024-03-23T14:41:02;24.17;;;16.73;;
62574;SDS011;76945;45.630;11.704;2024-03-23T14:43:29;25.50;;;17.45;;
62574;SDS011;76945;45.630;11.704;2024-03-23T14:48:34;24.05;;;17.13;;
62574;SDS011;76945;45.630;11.704;2024-03-23T14:51:00;21.38;;;15.15;;
62574;SDS011;76945;45.630;11.704;2024-03-23T14:53:28;21.65;;;16.00;;
62574;SDS011;76945;45.630;11.704;2024-03-23T14:55:55;23.80;;;15.43;;
62574;SDS011;76945;45.630;11.704;2024-03-23T14:58:21;23.52;;;16.17;;
62574;SDS011;76945;45.630;11.704;2024-03-23T15:00:49;22.45;;;15.00;;
62574;SDS011;76945;45.630;11.704;2024-03-23T15:03:15;24.20;;;16.30;;
62574;SDS011;76945;45.630;11.704;2024-03-23T15:05:40;21.40;;;14.85;;
62574;SDS011;76945;45.630;11.704;2024-03-23T15:08:06;18.73;;;12.80;;
62574;SDS011;76945;45.630;11.704;2024-03-23T15:10:33;21.15;;;12.82;;
62574;SDS011;76945;45.630;11.704;2024-03-23T15:12:58;20.88;;;13.50;;
62574;SDS011;76945;45.630;11.704;2024-03-23T15:15:25;19.45;;;12.88;;
62574;SDS011;76945;45.630;11.704;2024-03-23T15:17:53;20.30;;;13.20;;
62574;SDS011;76945;45.630;11.704;2024-03-23T15:20:19;19.63;;;12.90;;